Time;durP1;ratioP1;P1;durP2;ratioP2;P2;SDS_P1;SDS_P2;PMS_P1;PMS_P2;Temp;Humidity;BMP_temperature;BMP_pressure;BME280_temperature;BME280_humidity;BME280_pressure;Samples;Min_cycle;Max_cycle;Signal;HPM_P1;HPM_P2
2021/05/01 00:01:49;;;;;;;2.33;1.97;;;;;;;5.66;53.60;101535.63;6316750;28;20286;-73
2021/05/01 00:04:53;;;;;;;2.30;2.20;;;;;;;5.67;53.33;101529.22;6315810;28;20471;-73
2021/05/01 00:07:57;;;;;;;2.10;2.00;;;;;;;5.71;53.98;101535.97;6315103;28;20241;-73
2021/05/01 00:11:01;;;;;;;2.07;2.07;;;;;;;5.67;53.93;101531.91;6316505;28;20191;-73
2021/05/01 00:14:05;;;;;;;5.50;2.30;;;;;;;5.80;53.20;101537.69;6314002;28;20387;-73
2021/05/01 00:17:11;;;;;;;2.30;2.20;;;;;;;5.85;53.35;101531.78;6315134;28;20474;-73
2021/05/01 00:20:16;;;;;;;2.10;2.00;;;;;;;5.67;53.92;101526.50;6314869;28;20355;-73
2021/05/01 00:23:20;;;;;;;3.20;2.07;;;;;;;5.62;54.08;101537.00;6315260;28;20231;-73
2021/05/01 00:26:23;;;;;;;2.70;2.50;;;;;;;5.63;53.84;101534.09;6315976;28;20192;-73
2021/05/01 00:29:27;;;;;;;3.03;2.00;;;;;;;5.78;54.04;101536.97;6316221;28;20228;-73
2021/05/01 00:32:30;;;;;;;2.73;1.83;;;;;;;5.81;53.44;101531.22;6314751;28;20461;-74
2021/05/01 00:35:34;;;;;;;8.03;2.00;;;;;;;5.72;53.67;101529.53;6314669;28;20360;-73
2021/05/01 00:38:38;;;;;;;4.67;1.97;;;;;;;5.74;52.77;101524.81;6314554;28;20470;-73
2021/05/01 00:41:41;;;;;;;6.73;1.97;;;;;;;5.69;53.06;101538.00;6315600;28;20311;-73
2021/05/01 00:44:45;;;;;;;3.80;1.73;;;;;;;5.72;53.20;101531.41;6315526;28;20192;-74
2021/05/01 00:47:48;;;;;;;1.70;1.40;;;;;;;5.52;53.36;101528.19;6314534;28;20545;-74
2021/05/01 00:50:51;;;;;;;1.70;1.60;;;;;;;5.58;53.80;101530.19;6315458;28;20201;-74
2021/05/01 00:53:55;;;;;;;4.20;1.43;;;;;;;5.60;54.07;101533.56;6315828;28;20249;-73
2021/05/01 00:56:59;;;;;;;4.07;1.53;;;;;;;5.62;53.65;101531.56;6315659;28;20263;-73
2021/05/01 01:00:04;;;;;;;5.20;1.80;;;;;;;5.61;53.72;101527.16;6315571;28;20186;-74
2021/05/01 01:03:14;;;;;;;3.60;1.90;;;;;;;5.52;54.50;101528.19;6273851;22;20335;-72
2021/05/01 01:06:18;;;;;;;5.10;1.60;;;;;;;5.36;55.42;101531.72;6215693;28;20186;-72
2021/05/01 01:09:22;;;;;;;2.27;1.67;;;;;;;5.52;54.59;101530.88;6215185;28;20476;-72
2021/05/01 01:12:25;;;;;;;45.67;20.07;;;;;;;5.39;55.46;101535.94;6216342;28;20231;-72
2021/05/01 01:15:31;;;;;;;4.23;3.93;;;;;;;5.35;55.65;101529.16;6216347;28;20195;-72
2021/05/01 01:18:34;;;;;;;2.03;1.93;;;;;;;5.29;55.63;101519.03;6216034;28;20218;-73
2021/05/01 01:21:43;;;;;;;2.47;1.70;;;;;;;5.35;55.40;101507.50;6214953;28;20217;-72
2021/05/01 01:24:47;;;;;;;4.63;1.70;;;;;;;5.50;54.94;101533.75;6216177;28;20189;-72
2021/05/01 01:27:51;;;;;;;2.07;1.63;;;;;;;5.33;56.26;101531.19;6216221;28;20286;-72
2021/05/01 01:30:54;;;;;;;1.60;1.50;;;;;;;5.39;56.10;101527.81;6214800;28;20464;-73
2021/05/01 01:33:58;;;;;;;4.53;1.97;;;;;;;5.39;56.38;101533.25;6215743;28;20220;-73
2021/05/01 01:37:01;;;;;;;2.00;1.83;;;;;;;5.40;56.69;101526.78;6215945;28;20189;-73
2021/05/01 01:40:09;;;;;;;9.03;2.40;;;;;;;5.31;57.33;101534.06;6215543;28;20187;-72
2021/05/01 01:43:12;;;;;;;6.67;2.60;;;;;;;5.20;57.77;101522.69;6215808;28;20216;-73
2021/05/01 01:46:16;;;;;;;7.20;2.90;;;;;;;5.25;57.68;101528.47;6214549;28;20480;-73
2021/05/01 01:49:19;;;;;;;4.47;2.70;;;;;;;5.13;59.11;101529.78;6214304;28;20386;-71
2021/05/01 01:52:22;;;;;;;3.33;3.10;;;;;;;5.00;59.54;101531.13;6215650;28;20192;-73
2021/05/01 01:55:26;;;;;;;4.67;3.57;;;;;;;5.10;60.13;101532.81;6215542;28;20194;-73
2021/05/01 01:58:30;;;;;;;3.57;3.37;;;;;;;5.32;58.71;101527.63;6215493;28;20195;-72
2021/05/01 02:01:34;;;;;;;3.47;3.17;;;;;;;5.16;59.53;101534.88;6215156;28;20231;-72
2021/05/01 02:04:37;;;;;;;3.63;3.33;;;;;;;5.30;58.50;101531.50;6215208;28;20283;-73
2021/05/01 02:07:40;;;;;;;2.67;2.50;;;;;;;5.03;58.34;101476.66;6214915;28;20230;-72
2021/05/01 02:10:44;;;;;;;3.20;3.03;;;;;;;5.33;58.73;101514.94;6215051;28;20263;-72
2021/05/01 02:13:47;;;;;;;7.47;2.57;;;;;;;5.16;58.88;101518.66;6214649;28;20188;-72
2021/05/01 02:16:50;;;;;;;42.93;5.40;;;;;;;5.21;58.33;101527.13;6214903;28;20256;-73
2021/05/01 02:19:54;;;;;;;36.47;5.47;;;;;;;4.84;60.00;101524.78;6196499;28;20211;-71
2021/05/01 02:22:57;;;;;;;4.17;3.23;;;;;;;4.80;60.54;101516.16;6214442;28;20217;-71
2021/05/01 02:26:01;;;;;;;3.50;3.20;;;;;;;5.01;60.80;101527.38;6213433;28;20221;-72
2021/05/01 02:29:04;;;;;;;7.70;3.00;;;;;;;4.93;61.26;101526.53;6214369;28;20192;-72
2021/05/01 02:32:08;;;;;;;5.27;4.50;;;;;;;4.93;60.78;101540.88;6213190;28;20280;-72
2021/05/01 02:35:13;;;;;;;14.83;6.37;;;;;;;5.00;60.54;101528.41;6214459;28;20276;-72
2021/05/01 02:38:16;;;;;;;15.50;6.93;;;;;;;5.06;61.00;101533.16;6214719;28;20252;-71
2021/05/01 02:41:24;;;;;;;9.27;5.50;;;;;;;4.98;60.94;101527.72;6214395;28;20242;-72
2021/05/01 02:44:27;;;;;;;8.57;5.20;;;;;;;4.79;61.90;101528.00;6214037;28;20235;-72
2021/05/01 02:47:30;;;;;;;8.93;5.10;;;;;;;4.65;63.63;101552.91;6212993;28;20197;-71
2021/05/01 02:50:33;;;;;;;7.67;4.33;;;;;;;4.49;64.10;101519.56;6213961;28;20256;-71
2021/05/01 02:53:37;;;;;;;4.10;3.90;;;;;;;4.55;63.92;101541.38;6212759;28;20232;-71
2021/05/01 02:56:41;;;;;;;13.87;8.10;;;;;;;4.73;62.48;101541.28;6212872;28;20442;-72
2021/05/01 02:59:44;;;;;;;13.83;7.73;;;;;;;4.87;62.17;101544.25;6214034;28;20277;-73
2021/05/01 03:02:48;;;;;;;7.77;4.53;;;;;;;4.87;62.89;101541.53;6213808;28;20258;-73
2021/05/01 03:05:51;;;;;;;6.13;3.40;;;;;;;4.52;64.07;101546.28;6213706;28;20244;-72
2021/05/01 03:08:54;;;;;;;3.37;3.00;;;;;;;4.25;66.51;101550.00;6213205;28;20189;-73
2021/05/01 03:11:58;;;;;;;2.57;2.40;;;;;;;4.34;66.56;101552.56;6213959;28;20191;-72
2021/05/01 03:15:01;;;;;;;2.77;2.17;;;;;;;3.91;69.00;101551.75;6213376;28;20262;-72
2021/05/01 03:18:05;;;;;;;3.63;2.10;;;;;;;3.95;69.14;101553.16;6213773;28;20221;-72
2021/05/01 03:21:09;;;;;;;2.33;2.20;;;;;;;4.18;67.72;101554.34;6212308;28;20354;-72
2021/05/01 03:24:13;;;;;;;2.20;2.00;;;;;;;4.07;68.61;101557.28;6212331;28;20378;-73
2021/05/01 03:27:17;;;;;;;1.77;1.77;;;;;;;3.97;69.10;101561.94;6212278;28;20504;-72
2021/05/01 03:30:21;;;;;;;5.03;1.63;;;;;;;3.92;69.83;101558.84;6212682;28;20233;-72
2021/05/01 03:33:26;;;;;;;2.73;1.60;;;;;;;3.94;69.67;101556.84;6195722;28;20213;-72
2021/05/01 03:36:29;;;;;;;2.20;2.10;;;;;;;3.99;69.90;101565.31;6213562;28;20250;-72
2021/05/01 03:39:32;;;;;;;1.90;1.83;;;;;;;4.32;67.24;101557.28;6213103;28;20291;-73
2021/05/01 03:42:36;;;;;;;1.67;1.67;;;;;;;4.52;66.64;101563.31;6213332;28;20278;-73
2021/05/01 03:45:39;;;;;;;3.80;2.07;;;;;;;4.50;65.87;101565.34;6213247;28;20189;-73
2021/05/01 03:48:42;;;;;;;1.87;1.80;;;;;;;4.47;66.09;101568.34;6212566;28;20189;-73
2021/05/01 03:51:46;;;;;;;2.77;2.50;;;;;;;4.48;66.48;101564.66;6213233;28;20191;-73
2021/05/01 03:54:49;;;;;;;2.33;2.23;;;;;;;4.52;66.22;101574.13;6213502;28;20196;-73
2021/05/01 03:57:53;;;;;;;2.50;2.30;;;;;;;4.48;66.66;101578.16;6213027;28;20187;-72
2021/05/01 04:00:56;;;;;;;2.37;2.17;;;;;;;4.54;66.54;101577.53;6212881;28;20228;-73
2021/05/01 04:03:59;;;;;;;3.50;2.30;;;;;;;4.79;66.58;101576.66;6212305;28;20274;-73
2021/05/01 04:07:02;;;;;;;2.37;2.10;;;;;;;4.80;66.16;101567.50;6211961;28;20187;-72
2021/05/01 04:10:07;;;;;;;2.20;2.20;;;;;;;4.78;66.96;101574.09;6211927;28;20448;-72
2021/05/01 04:13:12;;;;;;;2.10;2.10;;;;;;;4.92;66.38;101577.06;6211883;28;20512;-72
2021/05/01 04:16:16;;;;;;;3.90;2.10;;;;;;;5.01;66.60;101586.88;6212920;28;20187;-72
2021/05/01 04:19:20;;;;;;;2.67;2.10;;;;;;;5.03;66.62;101579.44;6212825;28;20227;-72
2021/05/01 04:22:23;;;;;;;3.47;2.37;;;;;;;4.99;66.83;101578.09;6212700;28;20280;-72
2021/05/01 04:25:27;;;;;;;2.70;2.50;;;;;;;4.82;67.55;101587.16;6212998;28;20188;-72
2021/05/01 04:28:44;;;;;;;2.47;2.33;;;;;;;4.86;67.82;101572.28;6211676;28;20363;-72
2021/05/01 04:31:47;;;;;;;2.33;2.13;;;;;;;4.81;68.16;101590.84;6213641;28;20235;-72
2021/05/01 04:34:50;;;;;;;2.33;2.23;;;;;;;4.84;68.79;101579.72;6212880;28;20187;-72
2021/05/01 04:37:53;;;;;;;2.33;2.23;;;;;;;4.95;67.81;101592.97;6211603;28;20502;-72
2021/05/01 04:40:56;;;;;;;4.03;2.50;;;;;;;5.18;66.97;101586.94;6212931;28;20255;-72
2021/05/01 04:44:01;;;;;;;2.73;2.63;;;;;;;5.18;67.06;101586.94;6216912;28;20256;-72
2021/05/01 04:47:04;;;;;;;2.63;2.47;;;;;;;5.20;67.03;101593.03;6215775;28;20308;-72
2021/05/01 04:50:12;;;;;;;2.77;2.60;;;;;;;5.23;66.53;101584.59;6216812;28;20250;-72
2021/05/01 04:53:16;;;;;;;5.97;2.70;;;;;;;5.32;66.88;101602.53;6216918;28;20192;-72
2021/05/01 04:56:19;;;;;;;2.80;2.60;;;;;;;5.36;66.72;101606.63;6216034;28;20252;-72
2021/05/01 04:59:23;;;;;;;2.70;2.50;;;;;;;5.42;66.83;101600.53;6215555;28;20211;-72
2021/05/01 05:02:26;;;;;;;3.80;2.93;;;;;;;5.42;67.24;101605.94;6215761;28;20318;-72
2021/05/01 05:05:29;;;;;;;2.83;2.63;;;;;;;5.51;66.96;101610.38;6216683;28;20196;-72
2021/05/01 05:08:32;;;;;;;2.93;2.73;;;;;;;5.47;67.19;101603.63;6216439;28;20193;-72
2021/05/01 05:11:35;;;;;;;8.00;3.10;;;;;;;5.48;67.08;101599.88;6216709;28;20195;-72
2021/05/01 05:14:40;;;;;;;4.90;3.30;;;;;;;5.65;66.18;101604.31;6216558;28;20260;-72
2021/05/01 05:17:43;;;;;;;3.07;2.70;;;;;;;5.49;65.48;101574.53;6215115;28;20387;-72
2021/05/01 05:20:46;;;;;;;3.23;3.03;;;;;;;5.62;65.34;101575.72;6198546;28;20204;-72
2021/05/01 05:23:49;;;;;;;2.43;2.43;;;;;;;5.70;65.98;101604.66;6215986;28;20245;-73
2021/05/01 05:26:53;;;;;;;2.77;2.57;;;;;;;5.80;65.46;101602.66;6216017;28;20187;-72
2021/05/01 05:29:57;;;;;;;2.77;2.67;;;;;;;5.83;64.63;101593.34;6214800;28;20417;-72
2021/05/01 05:33:00;;;;;;;2.97;2.70;;;;;;;5.81;63.25;101601.63;6216031;28;20224;-72
2021/05/01 05:36:04;;;;;;;4.00;2.80;;;;;;;5.92;62.60;101609.47;6214784;28;20495;-71
2021/05/01 05:39:08;;;;;;;3.43;2.20;;;;;;;5.90;60.26;101603.38;6215005;28;20201;-72
2021/05/01 05:42:14;;;;;;;2.20;2.10;;;;;;;6.05;58.52;101609.81;6215526;28;20255;-71
2021/05/01 05:45:23;;;;;;;2.00;2.00;;;;;;;6.10;58.23;101607.44;6214199;28;20400;-71
2021/05/01 05:48:26;;;;;;;1.90;1.80;;;;;;;6.18;57.05;101607.44;6215812;28;20232;-72
2021/05/01 05:51:29;;;;;;;3.50;1.87;;;;;;;6.19;55.91;101621.81;6215305;28;20225;-72
2021/05/01 05:54:33;;;;;;;1.97;1.90;;;;;;;6.13;55.21;101612.53;6214694;28;20193;-71
2021/05/01 05:57:36;;;;;;;1.83;1.80;;;;;;;6.17;55.46;101624.72;6214074;28;20446;-71
2021/05/01 06:00:40;;;;;;;2.10;1.83;;;;;;;6.18;54.63;101631.84;6213920;28;20189;-72
2021/05/01 06:03:47;;;;;;;1.63;1.63;;;;;;;6.26;54.55;101629.13;6214320;28;20247;-73
2021/05/01 06:06:59;;;;;;;1.70;1.70;;;;;;;6.45;54.06;101617.06;6213807;28;20523;-72
2021/05/01 06:10:05;;;;;;;1.40;1.40;;;;;;;6.45;53.54;101594.53;6213807;28;20189;-73
2021/05/01 06:13:12;;;;;;;1.97;1.87;;;;;;;6.70;53.09;101607.03;6213876;28;20229;-72
2021/05/01 06:16:16;;;;;;;1.90;1.70;;;;;;;6.77;52.35;101617.03;6214494;28;20195;-74
2021/05/01 06:19:19;;;;;;;1.70;1.70;;;;;;;6.92;51.73;101619.84;6214422;28;20188;-72
2021/05/01 06:22:24;;;;;;;1.70;1.60;;;;;;;6.94;51.16;101618.66;6213418;28;20212;-72
2021/05/01 06:25:28;;;;;;;2.30;1.80;;;;;;;7.02;50.33;101615.06;6214368;28;20189;-72
2021/05/01 06:28:32;;;;;;;1.77;1.77;;;;;;;7.21;50.74;101609.25;6214695;28;20228;-72
2021/05/01 06:31:37;;;;;;;1.90;1.80;;;;;;;7.42;50.02;101617.59;6212043;28;20189;-73
2021/05/01 06:34:45;;;;;;;1.97;1.50;;;;;;;7.25;49.19;101599.72;6214192;28;20200;-73
2021/05/01 06:37:51;;;;;;;1.70;1.70;;;;;;;7.23;49.23;101607.19;6196246;28;20288;-72
2021/05/01 06:40:57;;;;;;;2.27;1.87;;;;;;;7.48;49.45;101627.75;6212894;28;20190;-71
2021/05/01 06:44:04;;;;;;;2.03;1.77;;;;;;;7.48;49.36;101611.47;6213905;28;20210;-73
2021/05/01 06:47:12;;;;;;;1.80;1.77;;;;;;;7.52;48.72;101611.97;6213578;28;20190;-73
2021/05/01 06:50:16;;;;;;;1.80;1.70;;;;;;;7.60;48.70;101619.22;6214039;28;20224;-72
2021/05/01 06:53:29;;;;;;;1.60;1.60;;;;;;;7.79;47.90;101613.31;6213750;28;20260;-72
2021/05/01 06:56:32;;;;;;;1.57;1.57;;;;;;;7.91;47.95;101617.31;6213670;28;20190;-72
2021/05/01 06:59:36;;;;;;;1.30;1.30;;;;;;;8.05;47.78;101606.50;6213528;28;20196;-72
2021/05/01 07:02:44;;;;;;;1.50;1.50;;;;;;;8.17;46.82;101606.91;6212932;28;20261;-71
2021/05/01 07:05:48;;;;;;;2.10;1.50;;;;;;;8.21;47.38;101581.06;6212554;28;20186;-72
2021/05/01 07:08:52;;;;;;;1.70;1.60;;;;;;;8.48;46.54;101604.97;6212526;28;20196;-74
2021/05/01 07:11:55;;;;;;;1.52;1.52;;;;;;;8.42;45.93;101616.59;6211896;28;20217;-73
2021/05/01 07:15:01;;;;;;;1.83;1.73;;;;;;;8.52;45.61;101617.16;6212897;28;20258;-73
2021/05/01 07:18:11;;;;;;;1.45;1.45;;;;;;;8.61;45.02;101610.59;6211926;28;20193;-72
2021/05/01 07:21:14;;;;;;;1.55;1.45;;;;;;;8.72;44.35;101602.00;6212474;28;20193;-73
2021/05/01 07:24:18;;;;;;;1.73;1.60;;;;;;;9.01;44.74;101622.09;6212562;28;20276;-73
2021/05/01 07:27:21;;;;;;;;;;;;;;;8.96;43.71;101619.09;6195592;28;20100;-74
2021/05/01 07:30:24;;;;;;;;;;;;;;;8.89;43.91;101618.13;6212660;28;19918;-72
2021/05/01 07:33:31;;;;;;;;;;;;;;;8.92;42.48;101620.47;6213460;28;19921;-72
2021/05/01 07:36:39;;;;;;;;;;;;;;;9.11;41.87;101622.66;6213730;28;19995;-72
2021/05/01 07:39:42;;;;;;;;;;;;;;;8.97;40.75;101627.06;6212333;28;19980;-73
2021/05/01 07:42:46;;;;;;;;;;;;;;;8.92;39.87;101623.19;6211956;28;20152;-73
2021/05/01 07:45:53;;;;;;;;;;;;;;;9.08;40.70;101623.03;6213307;28;20000;-72
2021/05/01 07:48:57;;;;;;;;;;;;;;;9.22;40.51;101631.16;6212990;28;19986;-72
2021/05/01 07:52:00;;;;;;;;;;;;;;;9.13;39.49;101628.75;6213178;28;19922;-72
2021/05/01 07:55:04;;;;;;;;;;;;;;;9.12;40.24;101632.47;6213060;28;19924;-72
2021/05/01 07:58:07;;;;;;;;;;;;;;;9.12;40.67;101641.50;6212396;28;19957;-72
2021/05/01 08:01:10;;;;;;;;;;;;;;;9.04;41.25;101638.06;6212758;28;20013;-73
2021/05/01 08:04:13;;;;;;;;;;;;;;;9.11;39.98;101644.44;6212638;28;20163;-73
2021/05/01 08:07:17;;;;;;;;;;;;;;;9.13;40.50;101640.47;6213243;28;19922;-74
2021/05/01 08:10:20;;;;;;;;;;;;;;;9.27;40.46;101641.53;6211754;28;20072;-72
2021/05/01 08:13:23;;;;;;;;;;;;;;;9.24;39.59;101650.06;6213316;28;19957;-73
2021/05/01 08:16:26;;;;;;;;;;;;;;;9.29;39.55;101650.34;6197603;28;19960;-73
2021/05/01 08:19:30;;;;;;;;;;;;;;;9.37;39.53;101644.78;6217216;28;19991;-72
2021/05/01 08:22:32;;;;;;;;;;;;;;;9.30;38.50;101654.72;6217209;28;19917;-72
2021/05/01 08:25:35;;;;;;;;;;;;;;;9.37;38.29;101650.25;6216207;28;19981;-73
2021/05/01 08:28:38;;;;;;;;;;;;;;;9.39;39.74;101653.63;6217668;28;19917;-73
2021/05/01 08:31:42;;;;;;;1.10;1.10;;;;;;;9.31;38.36;101664.59;6216593;28;20246;-73
2021/05/01 08:34:46;;;;;;;2.22;1.75;;;;;;;9.45;37.94;101669.19;6216602;28;20194;-73
2021/05/01 08:37:49;;;;;;;1.40;1.40;;;;;;;9.48;37.16;101647.00;6216791;28;20253;-73
2021/05/01 08:40:52;;;;;;;3.05;1.35;;;;;;;9.71;37.52;101642.25;6215382;28;20396;-73
2021/05/01 08:44:04;;;;;;;1.00;1.00;;;;;;;9.86;37.67;101659.41;6216467;28;20210;-72
2021/05/01 08:47:08;;;;;;;0.90;0.90;;;;;;;9.80;36.99;101656.63;6216199;28;20202;-73
2021/05/01 08:50:38;;;;;;;1.52;1.10;;;;;;;9.86;35.74;101656.69;6216522;28;20318;-72
2021/05/01 08:53:42;;;;;;;1.17;1.17;;;;;;;9.85;35.39;101660.47;6216215;28;20190;-72
2021/05/01 08:56:46;;;;;;;1.17;1.17;;;;;;;9.96;36.18;101651.78;6216080;28;20254;-72
2021/05/01 08:59:49;;;;;;;1.90;1.10;;;;;;;10.03;35.72;101658.16;6214777;28;20123;-72
2021/05/01 09:02:55;;;;;;;2.28;1.10;;;;;;;10.22;35.94;101662.13;6197699;28;20238;-72
2021/05/01 09:05:59;;;;;;;1.77;1.77;;;;;;;10.19;37.25;101667.16;6214873;28;20225;-72
2021/05/01 09:09:06;;;;;;;1.20;1.10;;;;;;;10.07;35.87;101669.50;6216084;28;20186;-74
2021/05/01 09:12:11;;;;;;;1.63;0.93;;;;;;;10.06;36.14;101674.13;6216120;28;20190;-73
2021/05/01 09:15:19;;;;;;;2.83;1.00;;;;;;;9.96;36.59;101672.75;6215706;28;20197;-72
2021/05/01 09:18:23;;;;;;;3.75;0.98;;;;;;;10.17;36.79;101674.69;6214687;28;20409;-73
2021/05/01 09:21:30;;;;;;;2.65;1.20;;;;;;;9.91;36.13;101665.13;6197460;28;20224;-73
2021/05/01 09:24:34;;;;;;;4.50;1.23;;;;;;;9.97;37.05;101672.56;6215897;28;20217;-73
2021/05/01 09:27:38;;;;;;;1.00;1.00;;;;;;;9.88;35.89;101668.28;6214831;28;20186;-73
2021/05/01 09:30:42;;;;;;;1.45;1.00;;;;;;;9.89;36.03;101672.66;6214657;28;20186;-72
2021/05/01 09:33:50;;;;;;;1.00;1.00;;;;;;;10.07;33.58;101664.91;6213333;28;20206;-72
2021/05/01 09:36:54;;;;;;;3.55;0.80;;;;;;;10.04;34.19;101669.88;6215814;28;20253;-72
2021/05/01 09:39:59;;;;;;;1.00;1.00;;;;;;;10.09;33.51;101662.81;6214379;28;20186;-72
2021/05/01 09:43:08;;;;;;;1.85;0.93;;;;;;;10.22;35.23;101666.78;6197552;28;20209;-72
2021/05/01 09:46:15;;;;;;;2.20;0.77;;;;;;;10.26;34.19;101668.06;6215233;28;20186;-71
2021/05/01 09:49:20;;;;;;;1.00;1.00;;;;;;;10.48;34.65;101661.53;6213758;28;20489;-73
2021/05/01 09:52:24;;;;;;;5.40;0.90;;;;;;;10.74;33.79;101660.91;6214825;28;20225;-72
2021/05/01 09:55:47;;;;;;;0.88;0.88;;;;;;;10.48;33.24;101664.28;6214690;28;20575;-73
2021/05/01 09:58:57;;;;;;;1.20;0.90;;;;;;;10.48;32.59;101669.72;6214568;28;20224;-73
2021/05/01 10:02:13;;;;;;;0.90;0.90;;;;;;;10.51;33.40;101672.91;6214749;28;20229;-73
2021/05/01 10:05:17;;;;;;;0.93;0.93;;;;;;;10.68;33.69;101673.50;6214423;28;20214;-73
2021/05/01 10:08:23;;;;;;;3.50;0.80;;;;;;;10.67;33.48;101677.25;6196366;28;20205;-72
2021/05/01 10:11:29;;;;;;;0.82;0.82;;;;;;;10.83;33.76;101668.78;6213743;28;20186;-73
2021/05/01 10:14:44;;;;;;;1.00;1.00;;;;;;;10.87;32.63;101661.88;6214897;28;20254;-72
2021/05/01 10:17:49;;;;;;;0.98;0.85;;;;;;;10.83;32.72;101671.50;6214310;28;20265;-71
2021/05/01 10:20:52;;;;;;;0.90;0.90;;;;;;;10.88;33.22;101679.09;6214557;28;20190;-71
2021/05/01 10:23:57;;;;;;;2.00;1.05;;;;;;;10.86;33.29;101678.47;6214088;28;20281;-72
2021/05/01 10:27:00;;;;;;;;;;;;;;;10.58;33.65;101675.69;6214689;28;20078;-72
2021/05/01 10:30:12;;;;;;;;;;;;;;;10.66;34.16;101676.41;6214921;28;20062;-72
2021/05/01 10:33:24;;;;;;;;;;;;;;;10.76;34.89;101676.06;6213697;28;20197;-72
2021/05/01 10:36:28;;;;;;;;;;;;;;;11.03;35.28;101661.56;6197003;28;19917;-73
2021/05/01 10:39:42;;;;;;;1.13;1.08;;;;;;;11.18;32.88;101678.69;6214350;28;20276;-73
2021/05/01 10:42:46;;;;;;;1.98;0.90;;;;;;;10.86;32.77;101682.00;6213856;28;20194;-73
2021/05/01 10:45:56;;;;;;;1.10;1.10;;;;;;;10.94;32.99;101661.94;6213334;28;20232;-72
2021/05/01 10:49:00;;;;;;;2.47;1.20;;;;;;;10.91;34.03;101668.63;6213619;28;20221;-73
2021/05/01 10:52:16;;;;;;;2.08;1.15;;;;;;;10.90;33.69;101672.41;6214108;28;20228;-71
2021/05/01 10:55:20;;;;;;;2.17;2.08;;;;;;;11.00;35.50;101678.34;6213648;28;20222;-72
2021/05/01 10:58:33;;;;;;;1.65;1.00;;;;;;;11.05;34.20;101681.31;6214093;28;20222;-73
2021/05/01 11:01:43;;;;;;;1.67;1.20;;;;;;;10.90;33.55;101683.31;6214034;28;20202;-74
2021/05/01 11:04:55;;;;;;;1.10;1.10;;;;;;;10.64;34.30;101667.56;6213119;28;20425;-73
2021/05/01 11:08:03;;;;;;;1.23;1.20;;;;;;;10.89;33.66;101684.34;6213793;28;20193;-73
2021/05/01 11:11:11;;;;;;;1.05;1.05;;;;;;;10.86;33.85;101692.94;6212766;28;20474;-73
2021/05/01 11:14:20;;;;;;;1.00;1.00;;;;;;;10.74;33.17;101689.06;6212607;28;20194;-72
2021/05/01 11:17:35;;;;;;;1.20;1.10;;;;;;;11.00;34.13;101689.28;6212474;28;20374;-72
2021/05/01 11:20:41;;;;;;;1.58;1.08;;;;;;;11.35;33.03;101686.56;6212639;28;20190;-72
2021/05/01 11:23:44;;;;;;;1.58;1.00;;;;;;;11.19;33.91;101690.47;6213672;28;20218;-73
2021/05/01 11:26:49;;;;;;;0.90;0.90;;;;;;;10.95;33.80;101690.91;6213372;28;20221;-73
2021/05/01 11:29:52;;;;;;;0.93;0.93;;;;;;;10.94;34.75;101684.59;6212420;28;20256;-73
2021/05/01 11:32:56;;;;;;;1.00;1.00;;;;;;;11.00;33.99;101667.44;6213200;28;20186;-73
2021/05/01 11:35:59;;;;;;;5.53;1.23;;;;;;;11.12;34.26;101687.66;6211874;28;20396;-73
2021/05/01 11:39:03;;;;;;;4.85;1.30;;;;;;;10.74;34.35;101620.81;6211920;28;20260;-74
2021/05/01 11:42:08;;;;;;;2.65;0.98;;;;;;;11.31;34.39;101686.09;6213142;28;20186;-73
2021/05/01 11:45:15;;;;;;;1.00;1.00;;;;;;;11.24;33.17;101690.69;6212996;28;20210;-74
2021/05/01 11:48:30;;;;;;;1.58;1.20;;;;;;;11.54;33.24;101699.47;6213574;28;20218;-74
2021/05/01 11:52:02;;;;;;;0.98;0.98;;;;;;;11.49;33.88;101699.25;6214973;28;20359;-72
2021/05/01 11:55:18;;;;;;;2.78;1.80;;;;;;;11.82;33.33;101705.72;6217402;28;20245;-73
2021/05/01 11:58:31;;;;;;;3.30;1.30;;;;;;;11.66;33.32;101690.50;6217960;28;20193;-73
2021/05/01 12:01:41;;;;;;;2.97;1.40;;;;;;;11.91;33.17;101682.66;6217796;28;20202;-72
2021/05/01 12:04:55;;;;;;;2.80;1.15;;;;;;;11.80;34.31;101683.22;6217652;28;20237;-72
2021/05/01 12:08:04;;;;;;;3.17;1.02;;;;;;;12.02;33.03;101683.94;6216581;28;20360;-73
2021/05/01 12:11:09;;;;;;;3.33;1.00;;;;;;;11.66;32.55;101689.63;6217756;28;20190;-72
2021/05/01 12:14:15;;;;;;;1.17;0.95;;;;;;;11.83;33.47;101691.03;6216265;28;20381;-73
2021/05/01 12:17:18;;;;;;;2.05;1.13;;;;;;;11.75;32.72;101694.78;6217144;28;20217;-72
2021/05/01 12:20:24;;;;;;;2.17;1.10;;;;;;;11.63;33.36;101690.06;6216049;28;20461;-73
2021/05/01 12:23:41;;;;;;;0.98;0.98;;;;;;;11.70;33.00;101690.97;6216413;28;20314;-73
2021/05/01 12:26:45;;;;;;;0.90;0.90;;;;;;;11.74;32.30;101703.16;6217304;28;20269;-72
2021/05/01 12:29:48;;;;;;;1.00;1.00;;;;;;;11.67;32.96;101707.75;6216674;28;20186;-75
2021/05/01 12:32:52;;;;;;;1.20;1.10;;;;;;;11.43;33.35;101708.25;6217302;28;20186;-73
2021/05/01 12:35:57;;;;;;;5.47;1.20;;;;;;;11.66;32.26;101706.03;6216995;28;20228;-73
2021/05/01 12:39:00;;;;;;;1.30;1.30;;;;;;;11.56;33.98;101697.38;6216406;28;20439;-74
2021/05/01 12:42:21;;;;;;;1.40;1.30;;;;;;;11.41;32.35;101696.66;6217261;28;20186;-74
2021/05/01 12:45:33;;;;;;;1.98;1.10;;;;;;;11.44;31.80;101696.25;6216795;28;20242;-73
2021/05/01 12:48:43;;;;;;;2.83;2.08;;;;;;;11.57;33.13;101690.88;6215699;28;20381;-72
2021/05/01 12:52:09;;;;;;;1.63;1.42;;;;;;;11.71;33.27;101687.19;6215527;28;20218;-73
2021/05/01 12:55:14;;;;;;;3.72;1.10;;;;;;;11.67;32.96;101697.66;6215540;28;20191;-73
2021/05/01 12:58:18;;;;;;;3.83;1.20;;;;;;;11.40;33.21;101641.16;6198204;28;20273;-73
2021/05/01 13:01:30;;;;;;;1.00;1.00;;;;;;;12.01;32.03;101694.03;6215166;28;20214;-73
2021/05/01 13:04:36;;;;;;;3.95;1.10;;;;;;;11.80;32.58;101680.50;6215168;28;20238;-73
2021/05/01 13:07:42;;;;;;;100.53;4.25;;;;;;;11.92;32.64;101701.56;6215207;28;20436;-73
2021/05/01 13:10:47;;;;;;;11.90;1.50;;;;;;;11.95;32.25;101705.78;6215577;28;20194;-73
2021/05/01 13:13:50;;;;;;;15.05;1.60;;;;;;;11.92;32.63;101711.66;6215290;28;20222;-73
2021/05/01 13:17:07;;;;;;;1.83;1.80;;;;;;;11.13;41.59;101713.09;6215733;28;20241;-73
2021/05/01 13:20:16;;;;;;;1.60;1.60;;;;;;;11.16;42.47;101716.28;6216355;28;20253;-73
2021/05/01 13:23:35;;;;;;;2.15;2.05;;;;;;;11.11;43.16;101713.31;6216058;28;20186;-73
2021/05/01 13:26:41;;;;;;;1.63;1.60;;;;;;;11.17;43.15;101704.28;6214685;28;20583;-73
2021/05/01 13:29:44;;;;;;;2.47;1.65;;;;;;;10.92;43.83;101703.06;6215627;28;20227;-72
2021/05/01 13:32:49;;;;;;;3.30;1.50;;;;;;;10.78;44.71;101717.66;6216192;28;20192;-73
2021/05/01 13:35:59;;;;;;;1.98;1.83;;;;;;;10.67;44.13;101710.00;6215590;28;20194;-72
2021/05/01 13:39:03;;;;;;;5.50;1.67;;;;;;;10.83;44.60;101709.72;6215996;28;20186;-72
2021/05/01 13:42:09;;;;;;;1.77;1.67;;;;;;;10.88;44.14;101695.47;6215569;28;20191;-74
2021/05/01 13:45:13;;;;;;;1.80;1.70;;;;;;;10.78;43.99;101701.28;6215192;28;20214;-72
2021/05/01 13:48:19;;;;;;;1.75;1.65;;;;;;;10.73;44.55;101687.41;6214367;28;20187;-72
2021/05/01 13:51:34;;;;;;;1.73;1.48;;;;;;;10.65;43.93;101680.19;6215100;28;20194;-72
2021/05/01 13:54:37;;;;;;;3.30;1.73;;;;;;;10.72;44.69;101684.84;6215254;28;20258;-71
2021/05/01 13:57:41;;;;;;;1.70;1.60;;;;;;;10.89;44.25;101687.06;6214192;28;20481;-72
2021/05/01 14:00:46;;;;;;;2.65;1.90;;;;;;;10.72;44.08;101690.31;6214982;28;20250;-72
2021/05/01 14:03:51;;;;;;;3.08;1.73;;;;;;;10.62;43.96;101696.09;6215257;28;20237;-71
2021/05/01 14:06:55;;;;;;;2.83;1.70;;;;;;;10.50;43.73;101692.22;6215070;28;20214;-71
2021/05/01 14:09:58;;;;;;;21.35;2.15;;;;;;;10.45;44.22;101706.44;6213829;28;20190;-73
2021/05/01 14:13:13;;;;;;;2.50;1.60;;;;;;;10.48;43.82;101700.59;6213791;28;20209;-72
2021/05/01 14:16:17;;;;;;;6.22;1.60;;;;;;;10.48;43.78;101710.66;6213361;28;20474;-73
2021/05/01 14:19:21;;;;;;;3.13;1.45;;;;;;;10.59;43.38;101712.88;6214241;28;20186;-73
2021/05/01 14:22:25;;;;;;;4.53;1.45;;;;;;;10.43;43.62;101707.66;6214591;28;20209;-72
2021/05/01 14:25:29;;;;;;;3.05;1.30;;;;;;;10.46;43.71;101707.28;6213833;28;20472;-73
2021/05/01 14:28:34;;;;;;;2.92;1.40;;;;;;;10.34;43.63;101697.94;6214504;28;20187;-73
2021/05/01 14:31:37;;;;;;;2.20;1.52;;;;;;;10.37;43.58;101708.47;6214123;28;20269;-72
2021/05/01 14:34:51;;;;;;;2.00;1.48;;;;;;;10.36;43.78;101701.31;6214125;28;20273;-72
2021/05/01 14:37:54;;;;;;;4.13;1.45;;;;;;;10.20;43.76;101707.00;6213090;28;20194;-72